Time;durP1;ratioP1;P1;durP2;ratioP2;P2;SDS_P1;SDS_P2;PMS_P1;PMS_P2;Temp;Humidity;BMP_temperature;BMP_pressure;BME280_temperature;BME280_humidity;BME280_pressure;Samples;Min_cycle;Max_cycle;Signal;HPM_P1;HPM_P2
2023/03/20 00:03:57;;;;;;;38.90;19.70;;;;;;;13.74;49.54;99122.37;267669;1269;22545;-72
2023/03/20 00:09:59;;;;;;;43.80;20.50;;;;;;;13.68;49.62;99123.86;267345;1269;25285;-73
2023/03/20 00:16:01;;;;;;;36.50;19.10;;;;;;;13.45;50.05;99129.15;267926;1266;22639;-74
2023/03/20 00:22:03;;;;;;;35.80;18.80;;;;;;;13.46;49.83;99127.61;266984;1268;24211;-71
2023/03/20 00:28:27;;;;;;;39.80;19.80;;;;;;;13.40;49.99;99133.55;267811;1271;22556;-73
2023/03/20 00:34:30;;;;;;;34.50;18.80;;;;;;;13.23;50.43;99128.27;270963;1271;22156;-72
2023/03/20 00:40:31;;;;;;;36.30;19.60;;;;;;;13.19;50.73;99123.71;270909;1256;22534;-73
2023/03/20 00:46:37;;;;;;;39.80;20.10;;;;;;;13.59;49.96;99109.58;267780;1263;22535;-72
2023/03/20 00:52:40;;;;;;;43.50;20.60;;;;;;;13.71;49.57;99107.24;267499;1271;25237;-72
2023/03/20 00:58:41;;;;;;;39.60;19.80;;;;;;;13.09;50.85;99113.04;267073;1266;22575;-74
2023/03/20 01:04:43;;;;;;;36.50;19.10;;;;;;;12.85;51.48;99114.83;267607;1270;23329;-72
2023/03/20 01:10:46;;;;;;;39.60;20.10;;;;;;;12.90;51.14;99118.30;267273;1262;23930;-73
2023/03/20 01:16:49;;;;;;;36.30;19.30;;;;;;;12.83;51.48;99113.91;267427;1272;23324;-74
2023/03/20 01:22:50;;;;;;;42.60;20.80;;;;;;;12.52;52.08;99112.84;267250;1266;24209;-74
2023/03/20 01:28:52;;;;;;;39.40;19.90;;;;;;;12.67;51.98;99112.69;267308;1266;23097;-74
2023/03/20 01:34:54;;;;;;;40.70;20.50;;;;;;;12.82;51.53;99111.73;267696;1259;22534;-74
2023/03/20 01:41:05;;;;;;;40.00;20.00;;;;;;;12.83;51.56;99111.02;267211;1266;24192;-75
2023/03/20 01:47:16;;;;;;;40.00;20.90;;;;;;;12.77;51.53;99109.02;267464;1253;22811;-75
2023/03/20 01:53:24;;;;;;;42.80;21.10;;;;;;;12.71;51.63;99111.45;267133;1271;22935;-75
2023/03/20 01:59:33;;;;;;;43.10;21.30;;;;;;;12.86;51.39;99105.84;267205;1254;24260;-77
2023/03/20 02:05:35;;;;;;;;;;;;;;;12.75;51.67;99106.66;267378;1272;24233;-77
2023/03/20 02:11:39;;;;;;;41.30;20.40;;;;;;;12.84;51.71;99109.52;267475;1268;22519;-76
2023/03/20 02:17:42;;;;;;;50.80;25.60;;;;;;;13.00;51.44;99110.27;267353;1273;22946;-76
2023/03/20 02:24:02;;;;;;;77.40;32.60;;;;;;;13.05;51.36;99114.34;267419;1270;25332;-77
2023/03/20 02:30:51;;;;;;;67.90;31.00;;;;;;;13.09;51.39;99112.08;267560;1269;25433;-75
2023/03/20 02:37:12;;;;;;;60.50;27.90;;;;;;;13.18;51.31;99110.12;267425;1271;23274;-75
2023/03/20 02:43:18;;;;;;;49.20;24.20;;;;;;;13.30;51.08;99108.50;267268;1263;22576;-75
2023/03/20 02:49:48;;;;;;;50.00;25.10;;;;;;;13.32;51.07;99104.31;266937;1272;24232;-74
2023/03/20 02:56:05;;;;;;;43.70;23.40;;;;;;;13.39;51.03;99098.70;267465;1274;25426;-75
2023/03/20 03:02:14;;;;;;;44.30;22.60;;;;;;;13.32;51.10;99092.27;267387;1266;22551;-75
2023/03/20 03:08:17;;;;;;;40.90;21.00;;;;;;;13.16;51.55;99089.40;267188;1267;22525;-76
2023/03/20 03:14:34;;;;;;;41.60;22.40;;;;;;;13.03;51.87;99088.99;267101;1266;24260;-74
2023/03/20 03:20:38;;;;;;;40.00;21.10;;;;;;;13.10;51.79;99086.95;267065;1268;22550;-75
2023/03/20 03:26:41;;;;;;;43.20;21.10;;;;;;;13.10;51.74;99080.77;267364;1268;25386;-74
2023/03/20 03:32:49;;;;;;;41.90;21.10;;;;;;;13.07;51.69;99079.33;267424;1271;25431;-74
2023/03/20 03:39:06;;;;;;;41.70;21.30;;;;;;;13.06;51.80;99078.55;266823;1272;23278;-74
2023/03/20 03:45:30;;;;;;;39.00;20.50;;;;;;;12.89;52.21;99082.35;267501;1267;22620;-77
2023/03/20 03:51:34;;;;;;;40.40;20.70;;;;;;;12.84;52.32;99082.41;267343;1272;23875;-73
2023/03/20 03:57:44;;;;;;;39.70;20.90;;;;;;;12.89;52.21;99081.70;267248;1257;22592;-75
2023/03/20 04:03:57;;;;;;;35.80;19.70;;;;;;;12.88;52.32;99085.39;267087;1272;23399;-75
2023/03/20 04:09:58;;;;;;;37.40;20.30;;;;;;;12.83;52.43;99082.79;267162;1269;22523;-75
2023/03/20 04:16:00;;;;;;;40.40;21.30;;;;;;;12.78;52.40;99086.44;267330;1272;22538;-77
2023/03/20 04:22:05;;;;;;;41.10;19.80;;;;;;;12.73;52.58;99090.08;267604;1272;22527;-76
2023/03/20 04:28:07;;;;;;;37.90;19.10;;;;;;;12.74;52.47;99088.14;267630;1273;24222;-75
2023/03/20 04:34:28;;;;;;;35.20;17.90;;;;;;;12.73;52.52;99085.92;267404;1256;23017;-77
2023/03/20 04:40:39;;;;;;;38.20;17.80;;;;;;;12.80;52.49;99089.15;267216;1275;22527;-75
2023/03/20 04:46:46;;;;;;;33.10;17.30;;;;;;;12.90;52.30;99088.63;267313;1272;22791;-76
2023/03/20 04:52:51;;;;;;;37.90;19.80;;;;;;;12.95;52.20;99090.63;267639;1269;26643;-73
2023/03/20 04:58:53;;;;;;;32.50;17.90;;;;;;;13.01;51.94;99092.80;266881;1267;23868;-74
2023/03/20 05:04:55;;;;;;;34.30;18.20;;;;;;;13.19;51.48;99091.77;267720;1259;24112;-76
2023/03/20 05:10:58;;;;;;;34.60;17.40;;;;;;;13.21;51.47;99087.33;267257;1269;23875;-74
2023/03/20 05:17:18;;;;;;;33.20;17.30;;;;;;;13.15;51.64;99094.89;267398;1268;22624;-76
2023/03/20 05:23:49;;;;;;;32.00;16.50;;;;;;;13.19;51.54;99097.81;267673;1270;23902;-77
2023/03/20 05:30:10;;;;;;;32.00;16.50;;;;;;;13.37;51.17;99098.34;267173;1266;22555;-76
2023/03/20 05:36:31;;;;;;;33.00;17.40;;;;;;;13.45;51.40;99105.91;267438;1269;22646;-73
2023/03/20 05:42:51;;;;;;;32.90;17.50;;;;;;;13.47;51.70;99107.86;267318;1274;22549;-72
2023/03/20 05:49:15;;;;;;;32.60;17.50;;;;;;;13.61;51.86;99106.27;267156;1260;22569;-73
2023/03/20 05:55:48;;;;;;;30.70;17.10;;;;;;;13.75;51.82;99111.14;267437;1264;23217;-73
2023/03/20 06:02:10;;;;;;;33.80;17.10;;;;;;;13.78;51.95;99111.52;267167;1266;25274;-73
2023/03/20 06:08:14;;;;;;;31.10;16.70;;;;;;;13.81;51.95;99114.90;267057;1264;22938;-71
2023/03/20 06:14:16;;;;;;;38.00;18.00;;;;;;;14.48;50.63;99111.22;267358;1264;25306;-72
2023/03/20 06:20:25;;;;;;;33.10;17.00;;;;;;;14.86;49.93;99112.15;267282;1260;22929;-81
2023/03/20 06:26:41;;;;;;;31.80;16.10;;;;;;;15.19;49.24;99118.52;269164;1272;22560;-74
2023/03/20 06:32:45;;;;;;;34.80;17.30;;;;;;;15.46;48.70;99125.15;267283;1267;22625;-71
2023/03/20 06:38:50;;;;;;;34.20;19.30;;;;;;;15.74;48.23;99129.44;267970;1261;22539;-73
2023/03/20 06:44:52;;;;;;;34.90;17.50;;;;;;;16.00;47.88;99135.33;267662;1256;26506;-74
2023/03/20 06:51:32;;;;;;;34.10;18.90;;;;;;;16.39;46.60;99130.46;266829;1272;22625;-74
2023/03/20 06:57:35;;;;;;;39.00;19.80;;;;;;;16.25;46.67;99132.75;266612;1272;22597;-73
2023/03/20 07:03:36;;;;;;;43.20;23.10;;;;;;;16.70;46.08;99139.55;266675;1274;22731;-73
2023/03/20 07:09:38;;;;;;;45.20;24.30;;;;;;;16.77;46.24;99146.18;267079;1273;26192;-71
2023/03/20 07:15:41;;;;;;;41.60;23.70;;;;;;;16.82;46.08;99147.23;267081;1276;22752;-72
2023/03/20 07:22:07;;;;;;;42.60;23.90;;;;;;;17.23;45.61;99150.02;269887;1251;22570;-72
2023/03/20 07:28:13;;;;;;;37.60;21.10;;;;;;;17.72;44.87;99145.00;267573;1270;22577;-73
2023/03/20 07:34:17;;;;;;;35.70;19.90;;;;;;;17.89;44.00;99137.82;268165;1270;22583;-72
2023/03/20 07:40:19;;;;;;;32.90;18.10;;;;;;;18.64;43.03;99130.50;268043;1270;22542;-72
2023/03/20 07:46:30;;;;;;;31.90;17.40;;;;;;;18.80;42.62;99135.03;268262;1257;24273;-72
2023/03/20 07:52:34;;;;;;;28.70;16.90;;;;;;;18.81;42.41;99142.98;267799;1269;138316;-74
2023/03/20 07:58:36;;;;;;;27.10;16.70;;;;;;;19.02;42.22;99148.29;267983;1263;26713;-72
2023/03/20 08:04:38;;;;;;;27.70;16.00;;;;;;;18.64;42.62;99144.61;268678;1263;22604;-73
2023/03/20 08:10:39;;;;;;;26.70;14.60;;;;;;;18.48;43.14;99148.48;267969;1258;23114;-74
2023/03/20 08:16:41;;;;;;;29.40;15.10;;;;;;;18.23;43.39;99153.71;267990;1268;22545;-77
2023/03/20 08:22:43;;;;;;;21.40;12.90;;;;;;;18.36;43.44;99150.50;269118;1268;23924;-78
2023/03/20 08:28:45;;;;;;;22.20;13.50;;;;;;;18.30;43.50;99146.60;269219;1273;24193;-78
2023/03/20 08:34:53;;;;;;;24.60;13.80;;;;;;;18.47;43.51;99151.58;268479;1268;22918;-78
2023/03/20 08:40:58;;;;;;;23.30;14.20;;;;;;;18.75;43.35;99149.40;269185;1267;25469;-78
2023/03/20 08:47:00;;;;;;;24.90;14.50;;;;;;;18.87;43.31;99151.27;270499;1266;22380;-72
2023/03/20 08:53:01;;;;;;;25.30;14.10;;;;;;;19.31;42.67;99154.33;268554;1270;25431;-72
2023/03/20 08:59:03;;;;;;;26.50;14.50;;;;;;;19.53;42.79;99154.63;267366;1261;22529;-73
2023/03/20 09:05:05;;;;;;;25.10;13.90;;;;;;;19.61;43.23;99145.11;267747;1266;22652;-78
2023/03/20 09:11:07;;;;;;;26.10;15.10;;;;;;;19.63;44.50;99143.92;268618;1267;22583;-78
2023/03/20 09:17:08;;;;;;;23.40;14.50;;;;;;;19.46;45.55;99147.81;268246;1274;22562;-78
2023/03/20 09:23:10;;;;;;;22.50;14.50;;;;;;;19.78;45.98;99145.36;268617;1268;23427;-78
2023/03/20 09:29:12;;;;;;;23.40;15.90;;;;;;;20.00;45.96;99153.08;268211;1267;22579;-77
2023/03/20 09:35:13;;;;;;;22.70;15.10;;;;;;;20.64;44.72;99153.02;268210;1270;22637;-77
2023/03/20 09:41:20;;;;;;;21.00;14.20;;;;;;;20.80;44.75;99153.34;267157;1253;22574;-76
2023/03/20 09:47:39;;;;;;;21.30;14.60;;;;;;;20.87;44.65;99154.17;267358;1270;23574;-73
2023/03/20 09:53:45;;;;;;;24.60;14.20;;;;;;;21.47;43.67;99155.45;267330;1268;22546;-73
2023/03/20 09:59:47;;;;;;;24.30;14.10;;;;;;;22.65;41.68;99148.98;267647;1266;22655;-72
2023/03/20 10:06:02;;;;;;;21.90;13.70;;;;;;;22.57;41.43;99155.11;267290;1270;22823;-73
2023/03/20 10:12:25;;;;;;;21.90;13.50;;;;;;;22.66;41.57;99148.86;267573;1267;22704;-73
2023/03/20 10:18:29;;;;;;;22.60;13.60;;;;;;;22.99;41.45;99147.34;267187;1267;23371;-73
2023/03/20 10:24:55;;;;;;;20.00;13.40;;;;;;;23.08;41.30;99141.30;267356;1267;23860;-72
2023/03/20 10:31:44;;;;;;;21.30;13.00;;;;;;;23.63;40.95;99133.79;267318;1267;22624;-72
2023/03/20 10:37:53;;;;;;;20.30;13.40;;;;;;;23.04;42.24;99139.75;267595;1266;22541;-73
2023/03/20 10:43:56;;;;;;;20.40;14.40;;;;;;;22.72;43.31;99144.00;267219;1270;24092;-73
2023/03/20 10:50:03;;;;;;;21.60;13.30;;;;;;;22.77;43.74;99136.15;267656;1252;24270;-74
2023/03/20 10:56:08;;;;;;;23.20;14.30;;;;;;;23.59;43.06;99127.14;267528;1267;22565;-73
2023/03/20 11:02:14;;;;;;;20.20;14.40;;;;;;;24.00;42.40;99121.88;267763;1268;25805;-72
2023/03/20 11:08:30;;;;;;;21.50;14.90;;;;;;;24.03;42.73;99120.98;267831;1267;25463;-74
2023/03/20 11:14:38;;;;;;;19.70;13.10;;;;;;;24.15;42.97;99120.48;267493;1259;22650;-73
2023/03/20 11:20:55;;;;;;;21.60;14.30;;;;;;;23.92;43.72;99114.80;267260;1273;24218;-73
2023/03/20 11:27:08;;;;;;;19.80;13.80;;;;;;;24.09;43.86;99108.13;268727;1267;22608;-73
2023/03/20 11:33:10;;;;;;;21.60;15.20;;;;;;;24.06;44.26;99109.08;267531;1267;22666;-73
2023/03/20 11:39:16;;;;;;;22.50;15.20;;;;;;;24.18;44.32;99104.13;267236;1262;23877;-74
2023/03/20 11:45:18;;;;;;;;;;;;;;;24.25;44.47;99108.59;267688;1267;22536;-73
2023/03/20 11:51:21;;;;;;;22.30;14.90;;;;;;;24.68;44.08;99108.45;267788;1259;25419;-72
2023/03/20 11:57:40;;;;;;;21.80;14.70;;;;;;;25.03;43.49;99109.04;267936;1259;22537;-73
2023/03/20 12:03:49;;;;;;;22.30;15.10;;;;;;;24.38;44.40;99099.13;267509;1259;22553;-73
2023/03/20 12:09:57;;;;;;;21.00;14.50;;;;;;;24.76;43.82;99092.70;267646;1266;22540;-74
2023/03/20 12:16:02;;;;;;;23.20;13.50;;;;;;;24.18;44.49;99089.47;267800;1270;22528;-72
2023/03/20 12:22:17;;;;;;;18.50;12.30;;;;;;;23.77;45.32;99080.41;267772;1262;22568;-73
2023/03/20 12:28:21;;;;;;;16.30;11.60;;;;;;;24.16;44.95;99074.54;267835;1262;22530;-73
2023/03/20 12:34:34;;;;;;;16.40;11.10;;;;;;;24.37;44.77;99075.53;267556;1268;22530;-73
2023/03/20 12:40:42;;;;;;;17.60;12.20;;;;;;;24.35;44.93;99075.97;267413;1266;22611;-73
2023/03/20 12:46:56;;;;;;;18.30;12.20;;;;;;;24.17;45.30;99072.96;267303;1260;24793;-73
2023/03/20 12:53:00;;;;;;;16.50;10.90;;;;;;;24.15;45.46;99071.84;267294;1268;22716;-73
2023/03/20 12:59:12;;;;;;;18.00;11.50;;;;;;;24.71;44.52;99065.95;268101;1262;22514;-72
2023/03/20 13:05:25;;;;;;;14.20;10.40;;;;;;;24.80;44.25;99068.77;267406;1268;22530;-74
2023/03/20 13:11:34;;;;;;;13.10;9.30;;;;;;;24.56;43.94;99067.98;267372;1266;24352;-73
2023/03/20 13:18:05;;;;;;;15.00;9.90;;;;;;;24.48;44.12;99062.84;267575;1262;22552;-74
2023/03/20 13:24:35;;;;;;;15.40;10.30;;;;;;;24.29;44.90;99055.27;267517;1268;22552;-73
2023/03/20 13:30:57;;;;;;;14.20;10.60;;;;;;;24.15;44.90;99047.75;268433;1273;22649;-79
2023/03/20 13:37:21;;;;;;;18.20;12.20;;;;;;;24.48;44.86;99045.55;267578;1254;24270;-72
2023/03/20 13:43:36;;;;;;;19.10;12.30;;;;;;;24.30;45.65;99042.02;267373;1269;25271;-74
2023/03/20 13:49:45;;;;;;;21.40;13.20;;;;;;;25.07;44.27;99039.86;267536;1269;24691;-73
2023/03/20 13:56:25;;;;;;;20.40;12.70;;;;;;;25.55;44.15;99032.98;267521;1264;24221;-72
2023/03/20 14:02:52;;;;;;;18.60;11.50;;;;;;;24.42;45.26;99038.90;267644;1269;23430;-73
2023/03/20 14:08:54;;;;;;;14.80;9.60;;;;;;;24.72;44.61;99032.28;267294;1267;22946;-72
2023/03/20 14:14:56;;;;;;;14.50;9.00;;;;;;;24.04;44.52;99034.55;267377;1267;22549;-72
2023/03/20 14:21:02;;;;;;;15.70;9.70;;;;;;;23.32;45.61;99040.45;268485;1259;22551;-74
2023/03/20 14:27:05;;;;;;;15.40;9.10;;;;;;;23.50;45.72;99035.55;267697;1270;24194;-72
2023/03/20 14:33:15;;;;;;;13.10;8.40;;;;;;;23.66;45.39;99035.59;267204;1270;25366;-73
2023/03/20 14:39:22;;;;;;;14.90;9.60;;;;;;;23.14;46.22;99041.61;267444;1250;22812;-73
2023/03/20 14:45:29;;;;;;;17.10;11.00;;;;;;;23.05;46.43;99045.61;267217;1266;22522;-74
2023/03/20 14:51:44;;;;;;;19.00;13.10;;;;;;;22.63;47.65;99046.84;267262;1269;25342;-74
2023/03/20 14:57:45;;;;;;;22.70;15.10;;;;;;;22.45;48.14;99042.58;267456;1262;22595;-73
2023/03/20 15:04:30;;;;;;;20.30;13.30;;;;;;;22.12;48.74;99044.16;267197;1260;24345;-73
2023/03/20 15:10:35;;;;;;;19.90;13.60;;;;;;;23.22;47.03;99036.34;267538;1266;25106;-73
2023/03/20 15:16:37;;;;;;;22.20;14.70;;;;;;;23.65;46.28;99038.86;267807;1268;25515;-74
2023/03/20 15:22:53;;;;;;;22.90;15.00;;;;;;;23.15;46.82;99041.65;267427;1269;24246;-74
2023/03/20 15:29:04;;;;;;;21.40;15.20;;;;;;;22.67;47.71;99034.09;267301;1258;23376;-73
2023/03/20 15:35:07;;;;;;;19.40;13.30;;;;;;;22.58;47.59;99035.46;267913;1268;25952;-73
2023/03/20 15:41:26;;;;;;;21.40;14.50;;;;;;;23.09;46.95;99041.36;267571;1271;22572;-73
2023/03/20 15:47:29;;;;;;;23.00;15.10;;;;;;;22.64;47.73;99048.02;268410;1262;24194;-73
2023/03/20 15:53:37;;;;;;;22.30;15.40;;;;;;;23.21;47.04;99045.95;267827;1266;23283;-73
2023/03/20 15:59:39;;;;;;;25.50;16.50;;;;;;;22.12;48.92;99052.88;267708;1251;22645;-72
2023/03/20 16:05:43;;;;;;;23.50;16.10;;;;;;;21.83;49.09;99058.52;267493;1259;22614;-73
2023/03/20 16:11:47;;;;;;;22.10;16.40;;;;;;;21.76;49.31;99054.45;268494;1267;24247;-72
2023/03/20 16:17:51;;;;;;;20.90;15.00;;;;;;;22.00;48.87;99054.95;268393;1266;25344;-72
2023/03/20 16:23:56;;;;;;;26.10;16.40;;;;;;;21.80;49.26;99065.44;267906;1267;25573;-76
2023/03/20 16:29:59;;;;;;;25.70;15.60;;;;;;;21.65;49.56;99068.27;268072;1263;22544;-73
2023/03/20 16:36:03;;;;;;;20.00;15.10;;;;;;;21.91;49.05;99065.95;267594;1268;24080;-72
2023/03/20 16:42:27;;;;;;;22.90;15.90;;;;;;;21.70;49.45;99067.05;267370;1270;22934;-73
2023/03/20 16:48:31;;;;;;;19.30;14.80;;;;;;;21.73;49.47;99067.42;270114;1267;23911;-73
2023/03/20 16:54:34;;;;;;;20.90;14.70;;;;;;;21.79;49.44;99069.67;268485;1258;22525;-73
2023/03/20 17:00:57;;;;;;;23.50;15.30;;;;;;;21.89;49.27;99064.20;267700;1266;22538;-72
2023/03/20 17:07:26;;;;;;;20.50;15.20;;;;;;;21.96;49.28;99058.71;268280;1265;24381;-72
2023/03/20 17:13:28;;;;;;;19.50;14.60;;;;;;;21.94;49.26;99058.31;269357;1269;25413;-72
2023/03/20 17:19:31;;;;;;;23.20;15.80;;;;;;;21.96;49.16;99054.21;268204;1268;22641;-72
2023/03/20 17:25:33;;;;;;;19.20;14.10;;;;;;;21.84;49.45;99052.55;268823;1266;22519;-72
2023/03/20 17:31:34;;;;;;;22.50;15.10;;;;;;;21.98;49.37;99059.60;267778;1260;24292;-72
2023/03/20 17:37:36;;;;;;;24.30;15.60;;;;;;;21.68;50.35;99066.60;267821;1259;22583;-73
2023/03/20 17:43:39;;;;;;;28.00;17.10;;;;;;;21.83;50.59;99073.20;268540;1269;23245;-83
2023/03/20 17:49:41;;;;;;;26.70;19.60;;;;;;;22.03;50.66;99075.20;269463;1270;22526;-80
2023/03/20 17:55:44;;;;;;;27.60;18.00;;;;;;;21.71;51.22;99076.66;269236;1268;25396;-79
2023/03/20 18:09:54;;;;;;;;;;;;;;;;;;;;;
2023/03/20 18:25:37;;;;;;;;;;;;;;;;;;;;;
2023/03/20 18:31:59;;;;;;;29.00;19.80;;;;;;;20.06;54.37;99078.15;261161;1295;22788;-74
2023/03/20 18:38:02;;;;;;;31.80;20.20;;;;;;;19.87;54.58;99087.03;262242;1291;24287;-72
2023/03/20 18:44:04;;;;;;;35.10;19.70;;;;;;;19.63;55.17;99084.97;263995;1289;22557;-72
2023/03/20 18:50:17;;;;;;;28.40;18.70;;;;;;;19.91;54.73;99085.35;266290;1283;22594;-72
2023/03/20 18:56:22;;;;;;;30.40;19.10;;;;;;;20.16;54.59;99086.58;268147;1272;22628;-76
2023/03/20 19:02:26;;;;;;;25.80;18.80;;;;;;;20.49;53.81;99079.23;269536;1266;22566;-76
2023/03/20 19:08:28;;;;;;;26.70;18.30;;;;;;;20.47;53.73;99082.10;268219;1271;25451;-76
2023/03/20 19:14:30;;;;;;;26.60;17.80;;;;;;;20.41;54.01;99081.54;268358;1269;22608;-78
2023/03/20 19:20:37;;;;;;;27.90;19.00;;;;;;;20.36;53.99;99081.27;268740;1261;23175;-75
2023/03/20 19:26:41;;;;;;;31.80;18.80;;;;;;;20.51;53.99;99085.87;267858;1274;22581;-80
2023/03/20 19:32:42;;;;;;;29.40;18.40;;;;;;;20.55;54.13;99088.58;269253;1273;24150;-79
2023/03/20 19:38:44;;;;;;;27.10;17.90;;;;;;;20.67;53.91;99089.61;268073;1261;26014;-73
2023/03/20 19:44:46;;;;;;;30.70;19.10;;;;;;;20.32;54.53;99089.15;267264;1266;23190;-73
2023/03/20 19:50:49;;;;;;;29.00;19.10;;;;;;;20.32;54.42;99090.90;265096;1258;3165591;-74
2023/03/20 19:56:52;;;;;;;29.10;19.80;;;;;;;19.88;55.12;99095.00;267261;1266;23388;-72
2023/03/20 20:02:54;;;;;;;30.30;19.80;;;;;;;19.87;55.28;99088.83;267751;1265;23286;-73
2023/03/20 20:08:57;;;;;;;35.20;23.30;;;;;;;19.83;55.37;99088.30;268249;1265;22568;-78
2023/03/20 20:14:58;;;;;;;35.10;21.70;;;;;;;19.77;55.47;99080.98;267926;1255;25274;-73
2023/03/20 20:21:00;;;;;;;36.40;23.60;;;;;;;19.92;55.34;99079.69;267609;1264;25340;-72
2023/03/20 20:27:22;;;;;;;44.50;27.70;;;;;;;19.81;55.66;99073.14;267941;1267;22531;-73
2023/03/20 20:33:25;;;;;;;44.20;27.40;;;;;;;19.88;55.48;99066.40;267009;1271;22523;-73
2023/03/20 20:39:30;;;;;;;44.70;29.00;;;;;;;19.87;55.42;99070.23;267374;1270;24489;-76
2023/03/20 20:45:33;;;;;;;42.80;27.60;;;;;;;19.81;55.64;99066.37;268741;1269;25431;-73
2023/03/20 20:51:35;;;;;;;47.20;30.30;;;;;;;19.89;55.58;99074.80;267894;1272;22538;-75
2023/03/20 20:57:37;;;;;;;57.30;34.10;;;;;;;19.79;56.04;99063.18;266951;1268;22546;-75
2023/03/20 21:03:39;;;;;;;56.20;35.30;;;;;;;19.66;56.45;99062.79;267422;1269;22523;-78
2023/03/20 21:09:40;;;;;;;56.70;36.20;;;;;;;19.68;56.54;99069.25;268532;1272;23395;-81
2023/03/20 21:15:44;;;;;;;60.40;38.70;;;;;;;19.65;56.82;99071.42;268816;1270;25400;-78
2023/03/20 21:21:47;;;;;;;72.20;44.70;;;;;;;19.61;57.31;99073.66;268575;1251;22531;-77
2023/03/20 21:27:49;;;;;;;78.20;49.20;;;;;;;19.90;57.13;99078.78;267125;1269;25334;-75
2023/03/20 21:33:52;;;;;;;82.40;50.90;;;;;;;20.10;56.63;99076.95;268235;1256;22574;-79
2023/03/20 21:39:58;;;;;;;92.30;54.80;;;;;;;20.26;56.47;99078.36;268720;1271;22533;-78
2023/03/20 21:46:01;;;;;;;88.20;52.10;;;;;;;19.98;56.83;99078.03;268879;1262;22545;-78
2023/03/20 21:52:22;;;;;;;77.20;48.20;;;;;;;19.72;57.44;99082.19;268111;1272;22527;-78
2023/03/20 21:58:46;;;;;;;75.40;46.40;;;;;;;19.72;57.24;99087.98;268893;1262;22733;-79
2023/03/20 22:05:08;;;;;;;78.60;46.40;;;;;;;19.65;57.07;99086.37;268714;1267;25220;-78
2023/03/20 22:11:35;;;;;;;67.90;40.70;;;;;;;19.63;56.65;99084.58;268643;1267;22534;-77
2023/03/20 22:18:00;;;;;;;60.60;37.60;;;;;;;19.40;56.98;99090.77;268606;1259;25716;-76
2023/03/20 22:24:33;;;;;;;53.20;33.00;;;;;;;19.56;56.53;99092.09;268672;1270;22528;-77
2023/03/20 22:30:55;;;;;;;52.20;32.10;;;;;;;19.25;56.99;99096.50;267741;1265;22547;-79
2023/03/20 22:37:17;;;;;;;55.80;34.60;;;;;;;19.65;56.17;99099.17;267930;1269;22791;-76
2023/03/20 22:43:43;;;;;;;56.80;36.00;;;;;;;20.10;55.43;99095.89;268248;1269;22789;-76
2023/03/20 22:50:05;;;;;;;61.80;38.60;;;;;;;21.20;53.21;99095.55;268644;1273;22547;-75
2023/03/20 22:56:09;;;;;;;59.80;37.00;;;;;;;21.12;53.20;99099.94;267116;1272;22686;-76
2023/03/20 23:02:11;;;;;;;55.70;32.90;;;;;;;21.05;53.67;99100.44;267443;1270;25476;-76
2023/03/20 23:08:15;;;;;;;45.90;27.50;;;;;;;20.93;54.25;99099.49;267394;1264;25952;-76
2023/03/20 23:14:18;;;;;;;42.10;26.30;;;;;;;21.10;53.96;99099.01;268332;1269;25429;-77
2023/03/20 23:20:23;;;;;;;39.80;24.10;;;;;;;20.85;54.68;99102.33;268714;1274;22567;-77
2023/03/20 23:26:25;;;;;;;35.60;21.90;;;;;;;20.70;55.10;99096.07;267727;1272;22705;-76
2023/03/20 23:32:27;;;;;;;36.00;22.30;;;;;;;20.96;54.65;99085.89;268378;1251;22534;-77
2023/03/20 23:38:29;;;;;;;31.70;19.80;;;;;;;20.83;54.91;99082.05;267252;1270;22752;-75
2023/03/20 23:44:30;;;;;;;27.40;18.00;;;;;;;20.34;55.97;99072.14;267684;1272;25229;-76
2023/03/20 23:50:32;;;;;;;29.40;17.20;;;;;;;20.25;56.50;99067.79;269053;1274;22611;-75
2023/03/20 23:56:53;;;;;;;27.60;17.10;;;;;;;20.43;56.14;99068.40;267357;1272;22551;-75
